Time;durP1;ratioP1;P1;durP2;ratioP2;P2;SDS_P1;SDS_P2;PMS_P1;PMS_P2;Temp;Humidity;BMP_temperature;BMP_pressure;BME280_temperature;BME280_humidity;BME280_pressure;Samples;Min_cycle;Max_cycle;Signal;HPM_P1;HPM_P2
2024/03/01 00:01:07;;;;;;;8.90;2.40;;;4.10;99.90;;;;;;5108416;28;20047;-53
2024/03/01 00:03:32;;;;;;;11.70;3.42;;;4.10;99.90;;;;;;5109327;28;20043;-50
2024/03/01 00:05:58;;;;;;;11.32;3.30;;;4.10;99.90;;;;;;5108927;28;20027;-52
2024/03/01 00:08:23;;;;;;;10.25;2.25;;;4.10;99.90;;;;;;5108818;28;20149;-52
2024/03/01 00:10:49;;;;;;;5.53;1.48;;;4.10;99.90;;;;;;5108845;28;20032;-51
2024/03/01 00:13:15;;;;;;;9.75;2.05;;;4.10;99.90;;;;;;5109156;28;20117;-52
2024/03/01 00:15:40;;;;;;;7.30;2.30;;;4.10;99.90;;;;;;5108938;28;20166;-51
2024/03/01 00:18:06;;;;;;;16.67;4.28;;;4.10;99.90;;;;;;5109195;28;20266;-52
2024/03/01 00:20:32;;;;;;;10.90;2.42;;;4.10;99.90;;;;;;5109070;28;20028;-50
2024/03/01 00:22:57;;;;;;;6.28;2.20;;;4.10;99.90;;;;;;5108821;28;20051;-51
2024/03/01 00:25:23;;;;;;;7.10;1.52;;;4.10;99.90;;;;;;5108855;28;20040;-52
2024/03/01 00:27:49;;;;;;;6.47;1.38;;;4.10;99.90;;;;;;5108747;28;20118;-53
2024/03/01 00:30:15;;;;;;;5.63;1.40;;;4.00;99.90;;;;;;5108917;28;20024;-51
2024/03/01 00:32:41;;;;;;;7.95;1.50;;;4.00;99.90;;;;;;5108689;28;20057;-49
2024/03/01 00:35:07;;;;;;;6.13;1.50;;;4.00;99.90;;;;;;5107739;28;20133;-53
2024/03/01 00:37:32;;;;;;;5.88;1.88;;;4.00;99.90;;;;;;5108968;28;20032;-52
2024/03/01 00:39:58;;;;;;;4.90;1.48;;;4.00;99.90;;;;;;5107352;28;20036;-53
2024/03/01 00:42:24;;;;;;;6.95;1.63;;;4.00;99.90;;;;;;5108602;28;20047;-52
2024/03/01 00:44:50;;;;;;;16.88;4.80;;;4.10;99.90;;;;;;5108229;28;20032;-52
2024/03/01 00:47:15;;;;;;;19.20;4.90;;;4.10;99.90;;;;;;5108672;28;20312;-52
2024/03/01 00:49:41;;;;;;;14.68;2.65;;;4.20;99.90;;;;;;5108320;28;20050;-53
2024/03/01 00:52:07;;;;;;;5.53;1.70;;;4.10;99.90;;;;;;5108363;28;20293;-52
2024/03/01 00:54:32;;;;;;;7.93;1.40;;;4.10;99.90;;;;;;5090340;28;20055;-51
2024/03/01 00:56:58;;;;;;;4.88;1.20;;;4.20;99.90;;;;;;5108254;28;20204;-52
2024/03/01 00:59:23;;;;;;;6.00;1.70;;;4.20;99.90;;;;;;5108145;28;20046;-51
2024/03/01 01:01:49;;;;;;;13.27;2.13;;;4.30;99.90;;;;;;5108349;28;20035;-52
2024/03/01 01:04:15;;;;;;;7.45;1.23;;;4.40;99.90;;;;;;5108218;28;20039;-52
2024/03/01 01:06:40;;;;;;;7.20;1.50;;;4.50;99.90;;;;;;5108206;28;20242;-53
2024/03/01 01:09:08;;;;;;;7.88;1.77;;;4.50;99.90;;;;;;5107880;28;20035;-53
2024/03/01 01:11:34;;;;;;;10.98;1.65;;;4.60;99.90;;;;;;5107513;28;20049;-52
2024/03/01 01:13:59;;;;;;;7.38;1.60;;;4.60;99.90;;;;;;5108160;28;20043;-53
2024/03/01 01:16:25;;;;;;;7.95;1.77;;;4.60;99.90;;;;;;5108004;28;20032;-52
2024/03/01 01:18:52;;;;;;;7.22;1.55;;;4.70;99.90;;;;;;5107628;28;20062;-52
2024/03/01 01:21:18;;;;;;;9.15;1.42;;;4.70;99.90;;;;;;5108049;28;20354;-50
2024/03/01 01:23:43;;;;;;;11.43;1.80;;;4.70;99.90;;;;;;5107543;28;20052;-53
2024/03/01 01:26:09;;;;;;;10.20;1.63;;;4.70;99.90;;;;;;5107746;28;20214;-51
2024/03/01 01:28:35;;;;;;;9.82;2.17;;;4.70;99.90;;;;;;5107164;28;20312;-53
2024/03/01 01:31:00;;;;;;;8.57;1.38;;;4.70;99.90;;;;;;5107564;28;20039;-51
2024/03/01 01:33:26;;;;;;;10.77;1.92;;;4.60;99.90;;;;;;5107524;28;20186;-52
2024/03/01 01:35:52;;;;;;;5.78;1.50;;;4.70;99.90;;;;;;5107501;28;20056;-50
2024/03/01 01:38:18;;;;;;;9.27;1.50;;;4.70;99.90;;;;;;5107573;28;20039;-53
2024/03/01 01:40:45;;;;;;;7.32;2.03;;;4.70;99.90;;;;;;5107603;28;20109;-51
2024/03/01 01:43:11;;;;;;;8.63;1.45;;;4.70;99.90;;;;;;5107344;28;20178;-53
2024/03/01 01:45:36;;;;;;;7.72;1.48;;;4.70;99.90;;;;;;5106124;28;20050;-53
2024/03/01 01:48:02;;;;;;;8.02;1.52;;;4.70;99.90;;;;;;5107337;28;20024;-53
2024/03/01 01:50:28;;;;;;;8.80;1.52;;;4.70;99.90;;;;;;5106391;28;20088;-52
2024/03/01 01:52:54;;;;;;;6.63;1.50;;;4.70;99.90;;;;;;5106026;28;20194;-52
2024/03/01 01:55:20;;;;;;;10.32;2.17;;;4.70;99.90;;;;;;5106273;28;20019;-51
2024/03/01 01:57:46;;;;;;;8.65;1.48;;;4.80;99.90;;;;;;5106998;28;20269;-53
2024/03/01 02:00:13;;;;;;;13.25;1.80;;;4.80;99.90;;;;;;5105994;28;20028;-51
2024/03/01 02:02:42;;;;;;;7.45;1.63;;;4.80;99.90;;;;;;5106097;28;20020;-53
2024/03/01 02:05:08;;;;;;;7.63;1.23;;;4.80;99.90;;;;;;5107200;28;20028;-50
2024/03/01 02:07:34;;;;;;;10.43;1.20;;;4.70;99.90;;;;;;5106694;28;20181;-53
2024/03/01 02:09:59;;;;;;;5.53;1.35;;;4.80;99.90;;;;;;5106866;28;20024;-52
2024/03/01 02:12:25;;;;;;;7.70;1.38;;;4.80;99.90;;;;;;5106833;28;20035;-45
2024/03/01 02:14:53;;;;;;;6.43;1.30;;;4.80;99.90;;;;;;5106680;28;20028;-46
2024/03/01 02:17:18;;;;;;;8.07;1.48;;;4.80;99.90;;;;;;5106514;28;20024;-46
2024/03/01 02:19:44;;;;;;;8.05;1.48;;;4.90;99.90;;;;;;5106739;28;20300;-45
2024/03/01 02:22:12;;;;;;;10.82;1.33;;;4.90;99.90;;;;;;5088696;28;20138;-44
2024/03/01 02:24:37;;;;;;;6.90;1.30;;;4.90;99.90;;;;;;5088548;28;20201;-45
2024/03/01 02:27:03;;;;;;;9.55;1.48;;;5.00;99.90;;;;;;5106559;28;20024;-45
2024/03/01 02:29:29;;;;;;;10.00;1.40;;;5.00;99.90;;;;;;5106351;28;20161;-45
2024/03/01 02:31:55;;;;;;;7.40;1.35;;;5.10;99.90;;;;;;5106370;28;20051;-45
2024/03/01 02:34:21;;;;;;;10.43;1.67;;;5.10;99.90;;;;;;5106648;28;20046;-45
2024/03/01 02:36:46;;;;;;;6.95;1.27;;;5.20;99.90;;;;;;5106486;28;20285;-46
2024/03/01 02:39:18;;;;;;;10.23;1.73;;;5.30;99.90;;;;;;5106365;28;20043;-45
2024/03/01 02:41:47;;;;;;;9.85;1.58;;;5.40;99.90;;;;;;5105544;28;20062;-46
2024/03/01 02:44:13;;;;;;;5.80;1.10;;;5.40;99.90;;;;;;5106350;28;20031;-44
2024/03/01 02:46:39;;;;;;;9.55;1.70;;;5.40;99.90;;;;;;5106342;28;20031;-45
2024/03/01 02:49:04;;;;;;;5.47;1.30;;;5.40;99.90;;;;;;5106266;28;20043;-44
2024/03/01 02:51:30;;;;;;;8.07;1.20;;;5.40;99.90;;;;;;5105964;28;20036;-45
2024/03/01 02:53:56;;;;;;;8.07;1.20;;;5.40;99.90;;;;;;5106123;28;20097;-45
2024/03/01 02:56:22;;;;;;;6.75;1.13;;;5.40;99.90;;;;;;5105989;28;20034;-45
2024/03/01 02:58:47;;;;;;;6.35;1.65;;;5.30;99.90;;;;;;5106149;28;20055;-45
2024/03/01 03:01:14;;;;;;;7.32;1.60;;;5.30;99.90;;;;;;5106245;28;20181;-45
2024/03/01 03:03:39;;;;;;;6.80;2.10;;;5.30;99.90;;;;;;5105704;28;20024;-45
2024/03/01 03:06:05;;;;;;;9.27;1.15;;;5.30;99.90;;;;;;5106145;28;20039;-45
2024/03/01 03:08:31;;;;;;;8.13;1.42;;;5.30;99.90;;;;;;5106442;28;20200;-45
2024/03/01 03:10:56;;;;;;;11.85;1.48;;;5.30;99.90;;;;;;5106152;28;20043;-45
2024/03/01 03:13:22;;;;;;;3.08;0.90;;;5.30;99.90;;;;;;5105687;28;20103;-45
2024/03/01 03:15:49;;;;;;;9.18;1.90;;;5.20;99.90;;;;;;5106014;28;20042;-45
2024/03/01 03:18:15;;;;;;;4.32;0.98;;;5.20;99.90;;;;;;5105969;28;20090;-45
2024/03/01 03:20:40;;;;;;;9.73;1.35;;;5.20;99.90;;;;;;5105330;28;20028;-45
2024/03/01 03:23:06;;;;;;;7.75;1.58;;;5.10;99.90;;;;;;5105642;28;20086;-46
2024/03/01 03:25:32;;;;;;;9.57;1.90;;;5.10;99.90;;;;;;5105665;28;20065;-45
2024/03/01 03:27:57;;;;;;;4.90;1.20;;;5.10;99.90;;;;;;5105719;28;20163;-45
2024/03/01 03:30:23;;;;;;;7.43;1.27;;;5.10;99.90;;;;;;5105787;28;20116;-44
2024/03/01 03:32:49;;;;;;;2.60;1.00;;;5.00;99.90;;;;;;5105617;28;20032;-45
2024/03/01 03:35:14;;;;;;;8.48;1.77;;;5.00;99.90;;;;;;5105306;28;20117;-45
2024/03/01 03:37:40;;;;;;;6.78;1.38;;;5.00;99.90;;;;;;5105560;28;20031;-45
2024/03/01 03:40:24;;;;;;;5.43;1.35;;;5.00;99.90;;;;;;5106251;28;20024;-45
2024/03/01 03:42:49;;;;;;;4.00;0.98;;;4.90;99.90;;;;;;5105565;28;20036;-45
2024/03/01 03:45:15;;;;;;;6.57;1.27;;;4.90;99.90;;;;;;5105435;28;20024;-45
2024/03/01 03:47:41;;;;;;;6.25;1.40;;;4.90;99.90;;;;;;5105481;28;20036;-44
2024/03/01 03:50:07;;;;;;;5.03;1.35;;;4.90;99.90;;;;;;5105744;28;20043;-46
2024/03/01 03:52:34;;;;;;;7.53;1.30;;;4.90;99.90;;;;;;5105550;28;20020;-45
2024/03/01 03:55:00;;;;;;;5.95;1.20;;;4.90;99.90;;;;;;5105250;28;20032;-44
2024/03/01 03:57:25;;;;;;;7.50;1.73;;;4.90;99.90;;;;;;5105234;28;20020;-46
2024/03/01 03:59:51;;;;;;;7.22;1.42;;;4.90;99.90;;;;;;5105436;28;20080;-45
2024/03/01 04:02:17;;;;;;;4.60;1.38;;;4.90;99.90;;;;;;5105553;28;20113;-45
2024/03/01 04:04:42;;;;;;;7.10;1.70;;;5.00;99.90;;;;;;5105385;28;20024;-44
2024/03/01 04:07:08;;;;;;;5.03;1.27;;;5.00;99.90;;;;;;5105636;28;20035;-45
2024/03/01 04:09:36;;;;;;;5.45;1.33;;;5.00;99.90;;;;;;5107093;28;20047;-45
2024/03/01 04:12:05;;;;;;;6.40;1.52;;;5.00;99.90;;;;;;5109048;28;20015;-45
2024/03/01 04:14:32;;;;;;;6.65;1.40;;;5.00;99.90;;;;;;5109265;28;20275;-45
2024/03/01 04:16:57;;;;;;;5.43;1.27;;;5.10;99.90;;;;;;5108801;28;20028;-45
2024/03/01 04:19:24;;;;;;;5.35;1.30;;;5.10;99.90;;;;;;5108864;28;20030;-44
2024/03/01 04:21:52;;;;;;;7.15;1.77;;;5.10;99.90;;;;;;5109073;28;20353;-45
2024/03/01 04:24:18;;;;;;;7.35;1.30;;;5.10;99.90;;;;;;5108890;28;20093;-45
2024/03/01 04:26:43;;;;;;;6.25;1.30;;;5.10;99.90;;;;;;5108948;28;20107;-45
2024/03/01 04:29:09;;;;;;;3.15;1.67;;;5.20;99.90;;;;;;5108006;28;20024;-45
2024/03/01 04:31:35;;;;;;;5.07;1.38;;;5.10;99.90;;;;;;5108863;28;20046;-45
2024/03/01 04:34:06;;;;;;;9.73;1.77;;;5.20;99.90;;;;;;5108768;28;20223;-45
2024/03/01 04:36:36;;;;;;;8.05;1.45;;;5.20;99.90;;;;;;5108850;28;20101;-45
2024/03/01 04:39:05;;;;;;;;;;;5.20;99.90;;;;;;5109402;28;20024;-45
2024/03/01 04:41:31;;;;;;;6.78;1.42;;;5.20;99.90;;;;;;5108481;28;19914;-45
2024/03/01 04:43:57;;;;;;;5.93;2.22;;;5.30;99.90;;;;;;5108559;28;20028;-45
2024/03/01 04:46:23;;;;;;;5.50;1.23;;;5.30;99.90;;;;;;5108479;28;20095;-45
2024/03/01 04:48:48;;;;;;;5.03;1.27;;;5.20;99.90;;;;;;5091066;28;20064;-45
2024/03/01 04:51:14;;;;;;;2.58;1.10;;;5.10;99.90;;;;;;5108290;28;20027;-45
2024/03/01 04:53:40;;;;;;;2.80;1.10;;;5.10;99.90;;;;;;5108221;28;20040;-45
2024/03/01 04:56:09;;;;;;;3.03;1.10;;;5.00;99.90;;;;;;5107931;28;20024;-45
2024/03/01 04:58:35;;;;;;;2.47;0.95;;;5.00;99.90;;;;;;5108443;28;20028;-44
2024/03/01 05:01:01;;;;;;;4.45;1.20;;;5.00;99.90;;;;;;5108205;28;20032;-45
2024/03/01 05:03:30;;;;;;;4.85;1.10;;;5.00;99.90;;;;;;5108381;28;20039;-45
2024/03/01 05:05:59;;;;;;;3.27;0.90;;;5.00;99.90;;;;;;5108337;28;20040;-45
2024/03/01 05:08:25;;;;;;;2.25;0.95;;;5.10;99.90;;;;;;5108211;28;20032;-45
2024/03/01 05:10:51;;;;;;;3.38;1.20;;;5.00;99.90;;;;;;5108345;28;20223;-46
2024/03/01 05:13:20;;;;;;;8.05;1.65;;;5.00;99.90;;;;;;5107873;28;20051;-45
2024/03/01 05:15:46;;;;;;;7.25;1.98;;;5.10;99.90;;;;;;5107856;28;20028;-45
2024/03/01 05:18:12;;;;;;;6.45;1.40;;;5.00;99.90;;;;;;5107941;28;20024;-45
2024/03/01 05:20:38;;;;;;;5.45;1.40;;;5.10;99.90;;;;;;5107714;28;20023;-45
2024/03/01 05:23:04;;;;;;;7.38;1.30;;;5.10;99.90;;;;;;5107441;28;20055;-44
2024/03/01 05:25:30;;;;;;;4.90;1.40;;;5.00;99.90;;;;;;5107779;28;20083;-45
2024/03/01 05:27:55;;;;;;;8.25;2.00;;;5.00;99.90;;;;;;5107235;28;20249;-45
2024/03/01 05:30:23;;;;;;;5.60;1.50;;;4.90;99.90;;;;;;5107818;28;20130;-46
2024/03/01 05:32:50;;;;;;;4.13;1.27;;;4.90;99.90;;;;;;5107465;28;20031;-45
2024/03/01 05:35:17;;;;;;;7.25;1.85;;;4.90;99.90;;;;;;5107306;28;20093;-45
2024/03/01 05:37:43;;;;;;;5.15;1.55;;;4.80;99.90;;;;;;5107343;28;20032;-44
2024/03/01 05:40:14;;;;;;;4.97;1.70;;;4.90;99.90;;;;;;5107605;28;20081;-44
2024/03/01 05:42:43;;;;;;;4.53;1.40;;;4.80;99.90;;;;;;5107474;28;20183;-45
2024/03/01 05:45:10;;;;;;;4.43;1.20;;;4.90;99.90;;;;;;5107354;28;20044;-44
2024/03/01 05:47:39;;;;;;;9.75;2.53;;;4.90;99.90;;;;;;5107215;28;20028;-44
2024/03/01 05:50:06;;;;;;;5.30;1.40;;;5.00;99.90;;;;;;5107351;28;20091;-45
2024/03/01 05:52:35;;;;;;;8.43;1.75;;;5.00;99.90;;;;;;5107050;28;20331;-44
2024/03/01 05:55:04;;;;;;;5.10;1.48;;;5.00;99.90;;;;;;5106904;28;20028;-45
2024/03/01 05:57:34;;;;;;;8.07;2.10;;;5.00;99.90;;;;;;5106988;28;20100;-45
2024/03/01 06:00:00;;;;;;;8.60;1.88;;;4.90;99.90;;;;;;5106582;28;20289;-45
2024/03/01 06:02:26;;;;;;;8.25;2.28;;;5.00;99.90;;;;;;5107034;28;20036;-44
2024/03/01 06:04:51;;;;;;;6.70;1.60;;;4.90;99.90;;;;;;5106580;28;20028;-45
2024/03/01 06:07:17;;;;;;;8.52;1.50;;;4.90;99.90;;;;;;5106862;28;20096;-44
2024/03/01 06:09:43;;;;;;;10.75;2.20;;;4.90;99.90;;;;;;5105670;28;20036;-45
2024/03/01 06:12:09;;;;;;;5.28;1.63;;;4.90;99.90;;;;;;5106706;28;20020;-46
2024/03/01 06:14:35;;;;;;;8.80;1.90;;;4.90;99.90;;;;;;5106785;28;20028;-44
2024/03/01 06:17:01;;;;;;;8.13;1.65;;;4.90;99.90;;;;;;5105794;28;20265;-44
2024/03/01 06:19:27;;;;;;;8.15;1.67;;;5.00;99.90;;;;;;5106496;28;20038;-45
2024/03/01 06:21:55;;;;;;;6.15;1.60;;;5.00;99.90;;;;;;5106518;28;20031;-44
2024/03/01 06:24:21;;;;;;;8.35;1.77;;;5.00;99.90;;;;;;5106468;28;20056;-44
2024/03/01 06:26:47;;;;;;;6.93;1.75;;;5.00;99.90;;;;;;5106631;28;20095;-44
2024/03/01 06:29:13;;;;;;;13.32;2.50;;;5.00;99.90;;;;;;5106225;28;20178;-45
2024/03/01 06:31:39;;;;;;;6.85;1.73;;;5.00;99.90;;;;;;5105635;28;20085;-45
2024/03/01 06:34:04;;;;;;;8.38;1.88;;;4.90;99.90;;;;;;5106569;28;20024;-44
2024/03/01 06:36:30;;;;;;;8.75;2.10;;;4.90;99.90;;;;;;5106164;28;20081;-45
2024/03/01 06:38:56;;;;;;;7.65;1.75;;;4.90;99.90;;;;;;5106169;28;20024;-44
2024/03/01 06:41:22;;;;;;;4.40;1.95;;;4.90;99.90;;;;;;5106007;28;20038;-45
2024/03/01 06:43:47;;;;;;;6.47;1.80;;;4.90;99.90;;;;;;5106063;28;20035;-46
2024/03/01 06:46:13;;;;;;;7.70;2.13;;;4.90;99.90;;;;;;5106142;28;20038;-45
2024/03/01 06:48:39;;;;;;;5.70;2.00;;;4.90;99.90;;;;;;5105639;28;20112;-45
2024/03/01 06:51:04;;;;;;;5.32;2.10;;;4.90;99.90;;;;;;5105669;28;20024;-45
2024/03/01 06:53:31;;;;;;;6.05;1.80;;;4.90;99.90;;;;;;5105769;28;20091;-46
2024/03/01 06:55:57;;;;;;;8.20;1.90;;;4.80;99.90;;;;;;5105911;28;20016;-44
2024/03/01 06:58:22;;;;;;;9.50;2.13;;;4.80;99.90;;;;;;5106008;28;20220;-45
2024/03/01 07:00:48;;;;;;;8.85;1.83;;;4.80;99.90;;;;;;5105977;28;20036;-44
2024/03/01 07:03:14;;;;;;;3.80;1.63;;;4.70;99.90;;;;;;5105672;28;20024;-46
2024/03/01 07:05:40;;;;;;;9.65;2.50;;;4.70;99.90;;;;;;5087802;28;20063;-44
2024/03/01 07:08:06;;;;;;;8.70;2.00;;;4.60;99.90;;;;;;5105811;28;20067;-45
2024/03/01 07:10:32;;;;;;;6.70;1.38;;;4.60;99.90;;;;;;5105658;28;20032;-44
2024/03/01 07:12:57;;;;;;;4.32;2.00;;;4.50;99.90;;;;;;5104836;28;20032;-44
2024/03/01 07:15:23;;;;;;;10.55;2.25;;;4.50;99.90;;;;;;5105720;28;20044;-45
2024/03/01 07:17:49;;;;;;;7.07;1.48;;;4.40;99.90;;;;;;5105616;28;20036;-44
2024/03/01 07:20:14;;;;;;;4.88;1.83;;;4.40;99.90;;;;;;5104415;28;20083;-44
2024/03/01 07:22:40;;;;;;;7.35;2.22;;;4.40;99.90;;;;;;5105552;28;20115;-44
2024/03/01 07:25:06;;;;;;;6.50;1.50;;;4.30;99.90;;;;;;5105693;28;20217;-44
2024/03/01 07:27:35;;;;;;;7.82;2.13;;;4.30;99.90;;;;;;5105509;28;20111;-45
2024/03/01 07:30:04;;;;;;;3.97;1.60;;;4.30;99.90;;;;;;5105608;28;20023;-44
2024/03/01 07:32:31;;;;;;;6.82;2.58;;;4.30;99.90;;;;;;5105468;28;20040;-44
2024/03/01 07:34:56;;;;;;;5.40;1.98;;;4.30;99.90;;;;;;5105599;28;20024;-45
2024/03/01 07:37:22;;;;;;;6.72;1.58;;;4.30;99.90;;;;;;5105053;28;20028;-44
2024/03/01 07:39:48;;;;;;;6.00;1.77;;;4.40;99.90;;;;;;5105477;28;20085;-44
2024/03/01 07:42:13;;;;;;;6.22;2.10;;;4.50;99.90;;;;;;5105315;28;20289;-44
2024/03/01 07:44:39;;;;;;;5.45;1.85;;;4.50;99.90;;;;;;5107468;28;20344;-44
2024/03/01 07:47:05;;;;;;;5.88;2.05;;;4.50;99.90;;;;;;5109255;28;20024;-45
2024/03/01 07:49:32;;;;;;;4.05;1.73;;;4.50;99.90;;;;;;5109229;28;20039;-44
2024/03/01 07:51:57;;;;;;;5.22;1.90;;;4.50;99.90;;;;;;5108623;28;20032;-44
2024/03/01 07:54:23;;;;;;;3.38;2.22;;;4.50;99.90;;;;;;5109468;28;20178;-45
2024/03/01 07:56:48;;;;;;;10.88;4.82;;;4.50;99.90;;;;;;5109124;28;20043;-45
2024/03/01 07:59:14;;;;;;;4.40;1.60;;;4.50;99.90;;;;;;5091038;28;20035;-44
2024/03/01 08:01:40;;;;;;;7.57;2.10;;;4.50;99.90;;;;;;5109098;28;20028;-46
2024/03/01 08:04:06;;;;;;;4.20;1.75;;;4.50;99.90;;;;;;5108978;28;20032;-45
2024/03/01 08:06:31;;;;;;;5.18;2.05;;;4.50;99.90;;;;;;5108856;28;20159;-45
2024/03/01 08:08:57;;;;;;;3.38;1.65;;;4.60;99.90;;;;;;5108590;28;20028;-46
2024/03/01 08:11:32;;;;;;;3.03;1.35;;;4.60;99.90;;;;;;5108917;28;20039;-45
2024/03/01 08:13:58;;;;;;;2.28;1.42;;;4.60;99.90;;;;;;5108930;28;20351;-45
2024/03/01 08:16:25;;;;;;;1.65;0.90;;;4.70;99.90;;;;;;5090784;28;20036;-45
2024/03/01 08:18:50;;;;;;;4.53;1.63;;;4.70;99.90;;;;;;5090820;28;20034;-45
2024/03/01 08:21:16;;;;;;;2.42;1.08;;;4.80;99.90;;;;;;5108792;28;20234;-45
2024/03/01 08:23:42;;;;;;;4.63;1.73;;;4.90;99.90;;;;;;5108414;28;20071;-46
2024/03/01 08:26:19;;;;;;;2.05;1.30;;;5.00;99.90;;;;;;5107509;28;20301;-45
2024/03/01 08:28:48;;;;;;;3.75;1.17;;;4.90;99.90;;;;;;5107220;28;20043;-45
2024/03/01 08:31:22;;;;;;;3.13;2.42;;;4.90;99.90;;;;;;5106989;28;20032;-45
2024/03/01 08:33:48;;;;;;;1.15;0.93;;;4.90;99.90;;;;;;5108027;28;20074;-45
2024/03/01 08:36:14;;;;;;;3.35;1.08;;;5.00;99.90;;;;;;5107361;28;20028;-45
2024/03/01 08:38:43;;;;;;;3.58;1.02;;;5.00;99.90;;;;;;5107060;28;20016;-46
2024/03/01 08:41:12;;;;;;;2.40;1.60;;;5.00;99.90;;;;;;5107995;28;20024;-45
2024/03/01 08:43:39;;;;;;;2.53;1.30;;;5.00;99.90;;;;;;5106910;28;20240;-45
2024/03/01 08:46:05;;;;;;;3.40;1.33;;;5.00;99.90;;;;;;5090121;28;20100;-45
2024/03/01 08:48:32;;;;;;;2.88;1.50;;;5.10;99.90;;;;;;5107978;28;20036;-45
2024/03/01 08:50:58;;;;;;;3.05;0.88;;;5.10;99.90;;;;;;5107961;28;20052;-46
2024/03/01 08:53:42;;;;;;;4.55;1.30;;;5.10;99.90;;;;;;5107643;28;20155;-47
2024/03/01 08:56:16;;;;;;;2.83;1.35;;;5.10;99.90;;;;;;5107254;28;20282;-46
2024/03/01 08:58:41;;;;;;;3.05;1.27;;;5.10;99.90;;;;;;5106679;28;20031;-46
2024/03/01 09:01:37;;;;;;;2.53;1.20;;;5.10;99.90;;;;;;5107498;28;20035;-45
2024/03/01 09:04:22;;;;;;;2.97;1.45;;;5.10;99.90;;;;;;5106910;28;20085;-46
2024/03/01 09:07:00;;;;;;;2.33;1.25;;;5.10;99.90;;;;;;5106741;28;20035;-46
2024/03/01 09:09:26;;;;;;;2.03;1.10;;;5.10;99.90;;;;;;5107461;28;20039;-45
2024/03/01 09:11:52;;;;;;;2.33;1.20;;;5.10;99.90;;;;;;5106938;28;20028;-44
2024/03/01 09:14:30;;;;;;;3.45;1.30;;;5.10;99.90;;;;;;5107461;28;20063;-45
2024/03/01 09:17:00;;;;;;;2.00;1.17;;;5.20;99.90;;;;;;5106348;28;20027;-44
2024/03/01 09:19:25;;;;;;;2.95;1.40;;;5.10;99.90;;;;;;5107064;28;20031;-46
2024/03/01 09:21:51;;;;;;;3.45;1.30;;;5.20;99.90;;;;;;5107150;28;20035;-46
2024/03/01 09:24:17;;;;;;;1.70;1.20;;;5.30;99.90;;;;;;5107441;28;20081;-46
2024/03/01 09:26:43;;;;;;;3.58;1.20;;;5.30;99.90;;;;;;5106158;28;20067;-45
2024/03/01 09:29:31;;;;;;;5.53;1.40;;;5.30;99.90;;;;;;5088970;28;20189;-45
2024/03/01 09:31:58;;;;;;;3.80;1.25;;;5.30;99.90;;;;;;5106088;28;20043;-45
2024/03/01 09:34:24;;;;;;;1.75;1.10;;;5.30;99.90;;;;;;5106916;28;20035;-45
2024/03/01 09:36:51;;;;;;;1.33;1.00;;;5.30;99.90;;;;;;5106037;28;20024;-43
2024/03/01 09:39:16;;;;;;;3.47;1.02;;;5.30;99.90;;;;;;5106832;28;20032;-44
2024/03/01 09:41:54;;;;;;;1.92;1.20;;;5.40;99.90;;;;;;5106147;28;20020;-44
2024/03/01 09:44:29;;;;;;;4.43;1.27;;;5.50;99.90;;;;;;5104862;28;20313;-44
2024/03/01 09:47:00;;;;;;;3.83;1.40;;;5.60;99.90;;;;;;5105603;28;20024;-44
2024/03/01 09:49:59;;;;;;;4.38;1.35;;;5.60;99.90;;;;;;5105833;28;20028;-43
2024/03/01 09:52:57;;;;;;;3.55;1.73;;;5.70;99.90;;;;;;5105513;28;20301;-45
2024/03/01 09:55:37;;;;;;;3.88;1.23;;;5.70;99.90;;;;;;5061081;28;20044;-45
2024/03/01 09:58:05;;;;;;;2.60;1.50;;;5.80;99.90;;;;;;5105526;28;20032;-46
2024/03/01 10:00:32;;;;;;;3.60;1.55;;;5.80;99.90;;;;;;5105605;28;20047;-48
2024/03/01 10:03:05;;;;;;;0.95;0.80;;;5.80;99.90;;;;;;5086659;28;20055;-46
2024/03/01 10:05:45;;;;;;;1.45;1.10;;;5.80;99.90;;;;;;5103638;28;20088;-49
2024/03/01 10:08:30;;;;;;;;;;;5.90;99.90;;;;;;5069697;28;20315;-45
2024/03/01 10:11:15;;;;;;;3.13;1.75;;;5.90;99.90;;;;;;5103945;28;19957;-49
2024/03/01 10:14:00;;;;;;;1.48;0.82;;;5.90;99.90;;;;;;5103611;28;20028;-47
2024/03/01 10:16:42;;;;;;;2.85;1.00;;;6.00;99.90;;;;;;5102331;28;20211;-48
2024/03/01 10:19:26;;;;;;;1.10;0.85;;;6.00;99.90;;;;;;5102673;28;20048;-46
2024/03/01 10:22:11;;;;;;;2.20;1.02;;;6.00;99.90;;;;;;5103545;28;20032;-46
2024/03/01 10:24:50;;;;;;;0.93;0.70;;;6.00;99.90;;;;;;5104861;28;20083;-46
2024/03/01 10:27:34;;;;;;;1.58;0.60;;;6.00;99.90;;;;;;5104561;28;20099;-46
2024/03/01 10:30:05;;;;;;;1.23;0.70;;;5.90;99.90;;;;;;5104446;28;20028;-45
2024/03/01 10:33:04;;;;;;;0.60;0.60;;;5.80;99.90;;;;;;5103385;28;20036;-45
2024/03/01 10:35:52;;;;;;;0.50;0.50;;;5.80;99.90;;;;;;5072154;28;20036;-47
2024/03/01 10:38:29;;;;;;;0.65;0.50;;;5.80;99.90;;;;;;5104868;28;20055;-45
2024/03/01 10:41:00;;;;;;;0.80;0.60;;;5.80;99.90;;;;;;5105112;28;20046;-44
2024/03/01 10:44:24;;;;;;;1.08;0.70;;;5.90;99.90;;;;;;5104296;28;20248;-43
2024/03/01 10:47:13;;;;;;;0.50;0.50;;;6.00;99.90;;;;;;5022818;28;20095;-43
2024/03/01 10:49:42;;;;;;;0.50;0.50;;;6.10;99.90;;;;;;5023396;28;20037;-46
2024/03/01 10:52:10;;;;;;;0.60;0.60;;;6.10;99.90;;;;;;5058794;28;20044;-44
2024/03/01 10:54:36;;;;;;;0.65;0.65;;;6.20;99.90;;;;;;5105091;28;20028;-44
2024/03/01 10:57:07;;;;;;;0.50;0.50;;;6.30;99.90;;;;;;5104668;28;20266;-44
2024/03/01 10:59:36;;;;;;;0.70;0.57;;;6.40;99.90;;;;;;5104814;28;20020;-46
2024/03/01 11:02:10;;;;;;;0.65;0.50;;;6.60;99.90;;;;;;5105048;28;20047;-44
2024/03/01 11:04:46;;;;;;;2.70;0.88;;;6.80;99.90;;;;;;5103457;28;20043;-44
2024/03/01 11:07:34;;;;;;;0.50;0.50;;;8.60;99.90;;;;;;5087166;28;20049;-45
2024/03/01 11:10:04;;;;;;;0.40;0.40;;;9.40;99.90;;;;;;5104886;28;20024;-45
2024/03/01 11:12:39;;;;;;;0.50;0.50;;;8.70;99.90;;;;;;5104619;28;20070;-45
2024/03/01 11:15:12;;;;;;;2.38;0.93;;;8.60;99.90;;;;;;5104901;28;20083;-46
2024/03/01 11:17:37;;;;;;;2.40;1.30;;;8.10;99.90;;;;;;5104554;28;20101;-46
2024/03/01 11:20:10;;;;;;;0.50;0.50;;;7.70;99.90;;;;;;5086870;28;20036;-45
2024/03/01 11:22:40;;;;;;;0.70;0.60;;;7.70;99.90;;;;;;5103490;28;20038;-46
2024/03/01 11:25:14;;;;;;;2.13;1.15;;;8.10;99.90;;;;;;5103240;28;20036;-47
2024/03/01 11:27:56;;;;;;;0.40;0.40;;;8.60;99.90;;;;;;5104101;28;20293;-48
2024/03/01 11:30:23;;;;;;;0.40;0.40;;;9.20;99.90;;;;;;5104242;28;20082;-47
2024/03/01 11:32:50;;;;;;;1.00;0.63;;;9.40;99.90;;;;;;5102678;28;20111;-46
2024/03/01 11:35:37;;;;;;;0.50;0.50;;;10.00;99.90;;;;;;5103722;28;20043;-45
2024/03/01 11:38:25;;;;;;;0.50;0.50;;;9.40;99.90;;;;;;5103212;28;20286;-45
2024/03/01 11:41:12;;;;;;;0.40;0.40;;;8.80;99.90;;;;;;5103725;28;20028;-45
2024/03/01 11:44:21;;;;;;;0.52;0.52;;;7.90;99.90;;;;;;5103283;28;20043;-46
2024/03/01 11:47:22;;;;;;;0.43;0.43;;;7.70;99.90;;;;;;5085985;28;20031;-46
2024/03/01 11:50:25;;;;;;;12.15;7.10;;;7.50;99.90;;;;;;5103014;28;20227;-45
2024/03/01 11:53:04;;;;;;;0.70;0.70;;;7.50;99.90;;;;;;5103163;28;20067;-47
2024/03/01 11:55:54;;;;;;;1.77;1.08;;;7.70;99.90;;;;;;5104054;28;20070;-44
2024/03/01 11:58:29;;;;;;;2.63;1.98;;;7.80;99.90;;;;;;5104046;28;20039;-44
2024/03/01 12:01:20;;;;;;;1.23;0.80;;;7.80;99.90;;;;;;5104030;28;20042;-45
2024/03/01 12:04:24;;;;;;;1.48;0.90;;;7.80;99.90;;;;;;5104286;28;20063;-45
2024/03/01 12:07:36;;;;;;;1.02;0.70;;;7.60;99.90;;;;;;5103679;28;20024;-46
2024/03/01 12:10:23;;;;;;;0.50;0.50;;;7.40;99.90;;;;;;5066825;28;20055;-45
2024/03/01 12:12:50;;;;;;;1.35;0.60;;;7.20;99.90;;;;;;5104090;28;20035;-46
2024/03/01 12:15:44;;;;;;;0.98;0.90;;;7.30;99.90;;;;;;5102164;28;20024;-45
2024/03/01 12:18:33;;;;;;;0.60;0.60;;;7.30;99.90;;;;;;5102710;28;20036;-45
2024/03/01 12:21:23;;;;;;;0.50;0.50;;;7.30;99.90;;;;;;5104137;28;20024;-46
2024/03/01 12:24:04;;;;;;;1.30;0.68;;;6.90;99.90;;;;;;5103807;28;20294;-45
2024/03/01 12:26:32;;;;;;;1.63;0.60;;;6.70;99.90;;;;;;5102722;28;20058;-47
2024/03/01 12:29:17;;;;;;;1.33;0.70;;;6.60;99.90;;;;;;5102788;28;20032;-44
2024/03/01 12:32:11;;;;;;;2.38;0.90;;;6.40;99.90;;;;;;5107422;28;20229;-45
2024/03/01 12:34:52;;;;;;;3.10;0.80;;;6.40;99.90;;;;;;5107501;28;20042;-45
2024/03/01 12:37:43;;;;;;;1.80;0.80;;;6.40;99.90;;;;;;5106399;28;20236;-45
2024/03/01 12:40:18;;;;;;;1.20;0.50;;;6.10;99.90;;;;;;5106665;28;20159;-45
2024/03/01 12:43:24;;;;;;;1.63;0.50;;;5.90;99.90;;;;;;5107212;28;20256;-43
2024/03/01 12:45:58;;;;;;;0.93;0.70;;;5.70;99.90;;;;;;5089340;28;20028;-44
2024/03/01 12:48:38;;;;;;;1.48;0.60;;;5.40;99.90;;;;;;5107280;28;20028;-44
2024/03/01 12:51:26;;;;;;;0.95;0.70;;;5.50;99.90;;;;;;5089613;28;20035;-46
2024/03/01 12:54:02;;;;;;;1.83;0.63;;;5.50;99.90;;;;;;5107147;28;20201;-44
2024/03/01 12:56:49;;;;;;;4.45;1.55;;;5.60;99.90;;;;;;5107221;28;20035;-44
2024/03/01 12:59:24;;;;;;;2.15;1.00;;;5.70;99.90;;;;;;5106152;28;20028;-44
2024/03/01 13:02:07;;;;;;;4.22;2.05;;;5.60;99.90;;;;;;5107264;28;20039;-44
2024/03/01 13:04:42;;;;;;;2.78;0.80;;;5.90;99.90;;;;;;5106085;28;20027;-44
2024/03/01 13:07:08;;;;;;;1.73;1.05;;;6.10;99.90;;;;;;5106981;28;20024;-44
2024/03/01 13:09:43;;;;;;;2.90;0.75;;;6.00;99.90;;;;;;5106147;28;20055;-44
2024/03/01 13:12:11;;;;;;;3.35;0.80;;;6.10;99.90;;;;;;5107084;28;20056;-44
2024/03/01 13:15:05;;;;;;;4.35;1.05;;;6.80;99.90;;;;;;5105925;28;20020;-44